sensor_id;sensor_type;location;lat;lon;timestamp;pressure;altitude;pressure_sealevel;temperature;humidity
84147;BME280;74267;50.434;7.398;2024-01-30T00:01:41;102162.81;;;4.37;89.11
84147;BME280;74267;50.434;7.398;2024-01-30T00:04:07;102160.63;;;4.42;88.45
84147;BME280;74267;50.434;7.398;2024-01-30T00:06:32;102165.84;;;4.42;88.51
84147;BME280;74267;50.434;7.398;2024-01-30T00:08:57;102167.78;;;4.40;89.15
84147;BME280;74267;50.434;7.398;2024-01-30T00:11:23;102165.53;;;4.35;88.45
84147;BME280;74267;50.434;7.398;2024-01-30T00:13:51;102168.50;;;4.31;88.52
84147;BME280;74267;50.434;7.398;2024-01-30T00:16:23;102173.97;;;4.28;89.02
84147;BME280;74267;50.434;7.398;2024-01-30T00:18:52;102167.38;;;4.24;89.47
84147;BME280;74267;50.434;7.398;2024-01-30T00:21:18;102179.25;;;4.37;89.06
84147;BME280;74267;50.434;7.398;2024-01-30T00:23:43;102176.22;;;4.32;88.00
84147;BME280;74267;50.434;7.398;2024-01-30T00:26:09;102172.59;;;4.24;89.10
84147;BME280;74267;50.434;7.398;2024-01-30T00:28:34;102176.41;;;4.20;89.29
84147;BME280;74267;50.434;7.398;2024-01-30T00:30:59;102177.53;;;4.27;88.30
84147;BME280;74267;50.434;7.398;2024-01-30T00:33:25;102177.78;;;4.24;89.72
84147;BME280;74267;50.434;7.398;2024-01-30T00:35:50;102167.28;;;4.14;89.77
84147;BME280;74267;50.434;7.398;2024-01-30T00:38:16;102170.09;;;4.22;89.62
84147;BME280;74267;50.434;7.398;2024-01-30T00:40:41;102167.44;;;4.33;88.82
84147;BME280;74267;50.434;7.398;2024-01-30T00:43:07;102161.56;;;4.20;89.09
84147;BME280;74267;50.434;7.398;2024-01-30T00:45:33;102163.84;;;4.14;89.62
84147;BME280;74267;50.434;7.398;2024-01-30T00:47:59;102164.78;;;4.13;88.98
84147;BME280;74267;50.434;7.398;2024-01-30T00:50:24;102154.41;;;4.02;89.26
84147;BME280;74267;50.434;7.398;2024-01-30T00:52:49;102153.97;;;3.97;90.09
84147;BME280;74267;50.434;7.398;2024-01-30T00:55:14;102163.88;;;4.03;90.00
84147;BME280;74267;50.434;7.398;2024-01-30T00:57:40;102166.66;;;4.22;89.54
84147;BME280;74267;50.434;7.398;2024-01-30T01:00:06;102154.47;;;4.22;89.00
84147;BME280;74267;50.434;7.398;2024-01-30T01:02:34;102158.53;;;4.15;88.18
84147;BME280;74267;50.434;7.398;2024-01-30T01:05:00;102159.31;;;4.16;87.77
84147;BME280;74267;50.434;7.398;2024-01-30T01:07:25;102152.97;;;4.09;87.30
84147;BME280;74267;50.434;7.398;2024-01-30T01:09:50;102163.88;;;4.03;88.82
84147;BME280;74267;50.434;7.398;2024-01-30T01:12:15;102164.66;;;3.94;88.32
84147;BME280;74267;50.434;7.398;2024-01-30T01:14:41;102155.44;;;3.90;88.52
84147;BME280;74267;50.434;7.398;2024-01-30T01:17:07;102162.41;;;3.89;89.02
84147;BME280;74267;50.434;7.398;2024-01-30T01:19:32;102160.03;;;3.86;88.98
84147;BME280;74267;50.434;7.398;2024-01-30T01:21:58;102161.72;;;3.76;89.70
84147;BME280;74267;50.434;7.398;2024-01-30T01:24:23;102156.41;;;3.78;89.62
84147;BME280;74267;50.434;7.398;2024-01-30T01:26:49;102166.53;;;3.92;89.43
84147;BME280;74267;50.434;7.398;2024-01-30T01:29:14;102157.19;;;3.89;89.21
84147;BME280;74267;50.434;7.398;2024-01-30T01:31:41;102159.69;;;3.80;89.80
84147;BME280;74267;50.434;7.398;2024-01-30T01:34:13;102161.25;;;3.82;89.86
84147;BME280;74267;50.434;7.398;2024-01-30T01:36:38;102160.88;;;3.76;89.52
84147;BME280;74267;50.434;7.398;2024-01-30T01:39:04;102156.16;;;3.70;90.15
84147;BME280;74267;50.434;7.398;2024-01-30T01:41:30;102157.72;;;3.72;89.84
84147;BME280;74267;50.434;7.398;2024-01-30T01:43:57;102154.94;;;3.85;89.49
84147;BME280;74267;50.434;7.398;2024-01-30T01:46:22;102155.19;;;3.82;89.19
84147;BME280;74267;50.434;7.398;2024-01-30T01:48:47;102160.31;;;3.72;90.40
84147;BME280;74267;50.434;7.398;2024-01-30T01:51:14;102152.88;;;3.68;90.78
84147;BME280;74267;50.434;7.398;2024-01-30T01:53:40;102150.03;;;3.71;90.38
84147;BME280;74267;50.434;7.398;2024-01-30T01:56:06;102159.44;;;3.83;89.83
84147;BME280;74267;50.434;7.398;2024-01-30T01:58:31;102152.38;;;3.74;89.69
84147;BME280;74267;50.434;7.398;2024-01-30T02:00:58;102151.72;;;3.61;90.78
84147;BME280;74267;50.434;7.398;2024-01-30T02:03:24;102151.47;;;3.64;90.54
84147;BME280;74267;50.434;7.398;2024-01-30T02:05:50;102148.34;;;3.70;90.11
84147;BME280;74267;50.434;7.398;2024-01-30T02:08:16;102149.44;;;3.67;90.76
84147;BME280;74267;50.434;7.398;2024-01-30T02:10:41;102155.25;;;3.60;90.23
84147;BME280;74267;50.434;7.398;2024-01-30T02:13:06;102162.84;;;3.52;91.54
84147;BME280;74267;50.434;7.398;2024-01-30T02:15:32;102153.59;;;3.59;90.47
84147;BME280;74267;50.434;7.398;2024-01-30T02:17:57;102151.09;;;3.57;90.35
84147;BME280;74267;50.434;7.398;2024-01-30T02:20:24;102158.00;;;3.58;89.18
84147;BME280;74267;50.434;7.398;2024-01-30T02:22:52;102152.44;;;3.52;89.23
84147;BME280;74267;50.434;7.398;2024-01-30T02:25:19;102153.88;;;3.45;89.93
84147;BME280;74267;50.434;7.398;2024-01-30T02:27:45;102150.78;;;3.40;90.13
84147;BME280;74267;50.434;7.398;2024-01-30T02:30:10;102150.81;;;3.29;90.35
84147;BME280;74267;50.434;7.398;2024-01-30T02:32:36;102155.78;;;3.32;90.12
84147;BME280;74267;50.434;7.398;2024-01-30T02:35:01;102153.66;;;3.37;90.36
84147;BME280;74267;50.434;7.398;2024-01-30T02:37:27;102150.34;;;3.24;89.53
84147;BME280;74267;50.434;7.398;2024-01-30T02:39:52;102149.28;;;3.15;90.15
84147;BME280;74267;50.434;7.398;2024-01-30T02:42:17;102146.81;;;3.14;90.84
84147;BME280;74267;50.434;7.398;2024-01-30T02:44:43;102141.22;;;3.29;89.57
84147;BME280;74267;50.434;7.398;2024-01-30T02:47:08;102153.19;;;3.21;89.47
84147;BME280;74267;50.434;7.398;2024-01-30T02:49:33;102156.97;;;3.17;89.74
84147;BME280;74267;50.434;7.398;2024-01-30T02:51:58;102152.25;;;3.11;89.83
84147;BME280;74267;50.434;7.398;2024-01-30T02:54:24;102138.88;;;3.15;90.13
84147;BME280;74267;50.434;7.398;2024-01-30T02:56:49;102134.25;;;3.19;89.86
84147;BME280;74267;50.434;7.398;2024-01-30T02:59:14;102148.34;;;3.05;89.91
84147;BME280;74267;50.434;7.398;2024-01-30T03:01:43;102139.00;;;2.92;90.30
84147;BME280;74267;50.434;7.398;2024-01-30T03:04:09;102137.91;;;2.83;91.31
84147;BME280;74267;50.434;7.398;2024-01-30T03:06:35;102141.34;;;2.95;91.36
84147;BME280;74267;50.434;7.398;2024-01-30T03:09:00;102142.78;;;2.99;91.91
84147;BME280;74267;50.434;7.398;2024-01-30T03:11:25;102133.22;;;2.99;91.57
84147;BME280;74267;50.434;7.398;2024-01-30T03:13:50;102138.28;;;3.12;91.06
84147;BME280;74267;50.434;7.398;2024-01-30T03:16:16;102134.72;;;3.02;90.77
84147;BME280;74267;50.434;7.398;2024-01-30T03:18:41;102132.13;;;3.02;90.23
84147;BME280;74267;50.434;7.398;2024-01-30T03:21:07;102133.69;;;3.15;90.13
84147;BME280;74267;50.434;7.398;2024-01-30T03:23:32;102136.16;;;3.17;88.84
84147;BME280;74267;50.434;7.398;2024-01-30T03:25:58;102132.13;;;3.02;88.99
84147;BME280;74267;50.434;7.398;2024-01-30T03:28:23;102133.78;;;2.81;90.28
84147;BME280;74267;50.434;7.398;2024-01-30T03:30:48;102133.78;;;2.81;91.14
84147;BME280;74267;50.434;7.398;2024-01-30T03:33:14;102127.41;;;2.85;90.14
84147;BME280;74267;50.434;7.398;2024-01-30T03:35:39;102134.28;;;2.97;90.45
84147;BME280;74267;50.434;7.398;2024-01-30T03:38:04;102127.41;;;2.96;90.44
84147;BME280;74267;50.434;7.398;2024-01-30T03:40:29;102124.81;;;2.85;90.66
84147;BME280;74267;50.434;7.398;2024-01-30T03:42:55;102127.06;;;2.89;90.15
84147;BME280;74267;50.434;7.398;2024-01-30T03:45:20;102132.84;;;2.93;90.79
84147;BME280;74267;50.434;7.398;2024-01-30T03:47:45;102129.31;;;2.94;89.87
84147;BME280;74267;50.434;7.398;2024-01-30T03:50:11;102126.22;;;2.89;90.58
84147;BME280;74267;50.434;7.398;2024-01-30T03:52:36;102115.59;;;2.81;91.35
84147;BME280;74267;50.434;7.398;2024-01-30T03:55:01;102121.13;;;2.76;91.75
84147;BME280;74267;50.434;7.398;2024-01-30T03:57:27;102127.41;;;2.74;92.54
84147;BME280;74267;50.434;7.398;2024-01-30T03:59:52;102126.44;;;2.86;91.36
84147;BME280;74267;50.434;7.398;2024-01-30T04:02:18;102123.63;;;2.89;90.81
84147;BME280;74267;50.434;7.398;2024-01-30T04:04:43;102121.97;;;2.99;90.96
84147;BME280;74267;50.434;7.398;2024-01-30T04:07:09;102127.63;;;2.93;91.40
84147;BME280;74267;50.434;7.398;2024-01-30T04:09:34;102125.63;;;2.85;91.41
84147;BME280;74267;50.434;7.398;2024-01-30T04:11:59;102129.06;;;2.75;91.48
84147;BME280;74267;50.434;7.398;2024-01-30T04:14:25;102132.84;;;2.82;91.48
84147;BME280;74267;50.434;7.398;2024-01-30T04:16:50;102126.91;;;2.80;91.19
84147;BME280;74267;50.434;7.398;2024-01-30T04:19:15;102127.41;;;2.74;91.61
84147;BME280;74267;50.434;7.398;2024-01-30T04:21:41;102125.84;;;2.71;90.93
84147;BME280;74267;50.434;7.398;2024-01-30T04:24:06;102127.63;;;2.71;91.55
84147;BME280;74267;50.434;7.398;2024-01-30T04:26:31;102120.19;;;2.66;90.87
84147;BME280;74267;50.434;7.398;2024-01-30T04:28:57;102117.69;;;2.65;91.38
84147;BME280;74267;50.434;7.398;2024-01-30T04:31:22;102135.44;;;2.71;90.66
84147;BME280;74267;50.434;7.398;2024-01-30T04:33:47;102126.09;;;2.79;90.77
84147;BME280;74267;50.434;7.398;2024-01-30T04:36:13;102131.66;;;2.75;90.45
84147;BME280;74267;50.434;7.398;2024-01-30T04:38:38;102128.81;;;2.67;91.80
84147;BME280;74267;50.434;7.398;2024-01-30T04:41:04;102118.75;;;2.62;91.23
84147;BME280;74267;50.434;7.398;2024-01-30T04:43:30;102131.03;;;2.60;92.22
84147;BME280;74267;50.434;7.398;2024-01-30T04:45:55;102122.41;;;2.59;92.06
84147;BME280;74267;50.434;7.398;2024-01-30T04:48:21;102119.44;;;2.64;92.07
84147;BME280;74267;50.434;7.398;2024-01-30T04:50:46;102128.31;;;2.62;91.75
84147;BME280;74267;50.434;7.398;2024-01-30T04:53:11;102132.00;;;2.70;91.67
84147;BME280;74267;50.434;7.398;2024-01-30T04:55:37;102122.19;;;2.74;91.81
84147;BME280;74267;50.434;7.398;2024-01-30T04:58:02;102124.31;;;2.80;90.71
84147;BME280;74267;50.434;7.398;2024-01-30T05:00:27;102129.50;;;2.69;91.96
84147;BME280;74267;50.434;7.398;2024-01-30T05:02:55;102124.53;;;2.66;92.75
84147;BME280;74267;50.434;7.398;2024-01-30T05:05:20;102119.44;;;2.64;92.89
84147;BME280;74267;50.434;7.398;2024-01-30T05:07:46;102112.59;;;2.63;92.33
84147;BME280;74267;50.434;7.398;2024-01-30T05:10:12;102117.69;;;2.65;92.00
84147;BME280;74267;50.434;7.398;2024-01-30T05:12:38;102124.81;;;2.85;91.90
84147;BME280;74267;50.434;7.398;2024-01-30T05:15:04;102118.19;;;2.81;92.29
84147;BME280;74267;50.434;7.398;2024-01-30T05:17:30;102121.81;;;2.78;92.09
84147;BME280;74267;50.434;7.398;2024-01-30T05:19:55;102115.09;;;2.76;92.70
84147;BME280;74267;50.434;7.398;2024-01-30T05:22:20;102123.38;;;2.81;92.10
84147;BME280;74267;50.434;7.398;2024-01-30T05:24:46;102119.50;;;2.75;92.50
84147;BME280;74267;50.434;7.398;2024-01-30T05:27:11;102115.56;;;2.70;92.08
84147;BME280;74267;50.434;7.398;2024-01-30T05:29:38;102119.00;;;2.70;92.64
84147;BME280;74267;50.434;7.398;2024-01-30T05:32:04;102117.69;;;2.65;92.78
84147;BME280;74267;50.434;7.398;2024-01-30T05:34:30;102119.34;;;2.66;92.87
84147;BME280;74267;50.434;7.398;2024-01-30T05:36:56;102118.03;;;2.71;91.73
84147;BME280;74267;50.434;7.398;2024-01-30T05:39:21;102120.06;;;2.68;91.95
84147;BME280;74267;50.434;7.398;2024-01-30T05:41:46;102122.78;;;2.77;91.60
84147;BME280;74267;50.434;7.398;2024-01-30T05:44:12;102122.44;;;2.71;90.96
84147;BME280;74267;50.434;7.398;2024-01-30T05:46:37;102115.81;;;2.67;91.44
84147;BME280;74267;50.434;7.398;2024-01-30T05:49:02;102121.81;;;2.56;91.98
84147;BME280;74267;50.434;7.398;2024-01-30T05:51:28;102124.75;;;2.51;93.08
84147;BME280;74267;50.434;7.398;2024-01-30T05:53:54;102122.16;;;2.63;92.07
84147;BME280;74267;50.434;7.398;2024-01-30T05:56:19;102118.59;;;2.52;92.65
84147;BME280;74267;50.434;7.398;2024-01-30T05:58:44;102105.63;;;2.52;92.32
84147;BME280;74267;50.434;7.398;2024-01-30T06:01:10;102116.47;;;2.46;92.15
84147;BME280;74267;50.434;7.398;2024-01-30T06:03:35;102110.81;;;2.41;92.00
84147;BME280;74267;50.434;7.398;2024-01-30T06:06:01;102112.91;;;2.36;92.42
84147;BME280;74267;50.434;7.398;2024-01-30T06:08:26;102120.13;;;2.44;91.96
84147;BME280;74267;50.434;7.398;2024-01-30T06:10:52;102121.22;;;2.52;90.96
84147;BME280;74267;50.434;7.398;2024-01-30T06:13:17;102113.75;;;2.48;90.82
84147;BME280;74267;50.434;7.398;2024-01-30T06:15:43;102112.44;;;2.42;91.13
84147;BME280;74267;50.434;7.398;2024-01-30T06:18:08;102118.09;;;2.36;91.17
84147;BME280;74267;50.434;7.398;2024-01-30T06:20:34;102121.44;;;2.38;91.67
84147;BME280;74267;50.434;7.398;2024-01-30T06:22:59;102115.75;;;2.33;91.67
84147;BME280;74267;50.434;7.398;2024-01-30T06:25:24;102122.72;;;2.33;92.15
84147;BME280;74267;50.434;7.398;2024-01-30T06:27:50;102117.53;;;2.33;92.20
84147;BME280;74267;50.434;7.398;2024-01-30T06:30:15;102121.06;;;2.32;92.47
84147;BME280;74267;50.434;7.398;2024-01-30T06:32:40;102116.69;;;2.32;91.73
84147;BME280;74267;50.434;7.398;2024-01-30T06:35:06;102124.13;;;2.37;92.13
84147;BME280;74267;50.434;7.398;2024-01-30T06:37:31;102119.78;;;2.37;91.73
84147;BME280;74267;50.434;7.398;2024-01-30T06:39:57;102115.66;;;2.35;92.30
84147;BME280;74267;50.434;7.398;2024-01-30T06:42:22;102116.78;;;2.31;92.04
84147;BME280;74267;50.434;7.398;2024-01-30T06:44:47;102122.59;;;2.34;93.08
84147;BME280;74267;50.434;7.398;2024-01-30T06:47:13;102128.03;;;2.42;92.69
84147;BME280;74267;50.434;7.398;2024-01-30T06:49:38;102127.47;;;2.50;91.62
84147;BME280;74267;50.434;7.398;2024-01-30T06:52:06;102129.97;;;2.63;91.41
84147;BME280;74267;50.434;7.398;2024-01-30T06:54:32;102125.00;;;2.59;91.50
84147;BME280;74267;50.434;7.398;2024-01-30T06:56:58;102132.22;;;2.56;92.29
84147;BME280;74267;50.434;7.398;2024-01-30T06:59:23;102129.72;;;2.43;92.54
84147;BME280;74267;50.434;7.398;2024-01-30T07:01:49;102140.00;;;2.45;93.50
84147;BME280;74267;50.434;7.398;2024-01-30T07:04:14;102132.78;;;2.48;92.60
84147;BME280;74267;50.434;7.398;2024-01-30T07:06:39;102134.81;;;2.56;93.63
84147;BME280;74267;50.434;7.398;2024-01-30T07:09:05;102134.19;;;2.52;93.67
84147;BME280;74267;50.434;7.398;2024-01-30T07:11:30;102136.47;;;2.57;93.98
84147;BME280;74267;50.434;7.398;2024-01-30T07:13:56;102128.81;;;2.67;93.18
84147;BME280;74267;50.434;7.398;2024-01-30T07:16:21;102128.81;;;2.67;93.58
84147;BME280;74267;50.434;7.398;2024-01-30T07:18:47;102129.28;;;2.72;92.86
84147;BME280;74267;50.434;7.398;2024-01-30T07:21:13;102123.84;;;2.75;93.11
84147;BME280;74267;50.434;7.398;2024-01-30T07:23:38;102125.25;;;2.68;92.70
84147;BME280;74267;50.434;7.398;2024-01-30T07:26:07;102131.41;;;2.67;92.96
84147;BME280;74267;50.434;7.398;2024-01-30T07:28:33;102132.09;;;2.69;93.41
84147;BME280;74267;50.434;7.398;2024-01-30T07:30:59;102142.28;;;2.72;93.03
84147;BME280;74267;50.434;7.398;2024-01-30T07:33:24;102150.69;;;2.75;92.78
84147;BME280;74267;50.434;7.398;2024-01-30T07:35:49;102138.72;;;2.73;92.61
84147;BME280;74267;50.434;7.398;2024-01-30T07:38:15;102144.19;;;2.81;92.86
84147;BME280;74267;50.434;7.398;2024-01-30T07:40:40;102135.66;;;2.79;92.66
84147;BME280;74267;50.434;7.398;2024-01-30T07:43:06;102140.41;;;2.85;92.15
84147;BME280;74267;50.434;7.398;2024-01-30T07:45:31;102148.94;;;2.87;92.62
84147;BME280;74267;50.434;7.398;2024-01-30T07:47:58;102152.47;;;2.86;92.09
84147;BME280;74267;50.434;7.398;2024-01-30T07:50:25;102148.31;;;2.83;92.39
84147;BME280;74267;50.434;7.398;2024-01-30T07:52:50;102144.19;;;2.81;92.35
84147;BME280;74267;50.434;7.398;2024-01-30T07:55:20;102139.00;;;2.81;92.43
84147;BME280;74267;50.434;7.398;2024-01-30T07:57:47;102152.00;;;2.92;92.34
84147;BME280;74267;50.434;7.398;2024-01-30T08:00:12;102144.91;;;2.94;92.05
84147;BME280;74267;50.434;7.398;2024-01-30T08:02:38;102144.91;;;2.94;92.51
84147;BME280;74267;50.434;7.398;2024-01-30T08:05:03;102155.53;;;2.91;92.63
84147;BME280;74267;50.434;7.398;2024-01-30T08:07:29;102154.59;;;2.92;92.01
84147;BME280;74267;50.434;7.398;2024-01-30T08:09:55;102156.25;;;2.82;92.81
84147;BME280;74267;50.434;7.398;2024-01-30T08:12:21;102163.81;;;2.96;91.86
84147;BME280;74267;50.434;7.398;2024-01-30T08:14:46;102166.66;;;3.04;92.07
84147;BME280;74267;50.434;7.398;2024-01-30T08:17:12;102166.91;;;3.01;92.03
84147;BME280;74267;50.434;7.398;2024-01-30T08:19:37;102171.50;;;3.08;91.46
84147;BME280;74267;50.434;7.398;2024-01-30T08:22:03;102165.59;;;3.06;91.61
84147;BME280;74267;50.434;7.398;2024-01-30T08:24:28;102166.44;;;3.07;92.07
84147;BME280;74267;50.434;7.398;2024-01-30T08:26:54;102169.72;;;3.09;92.37
84147;BME280;74267;50.434;7.398;2024-01-30T08:29:19;102174.94;;;3.09;91.74
84147;BME280;74267;50.434;7.398;2024-01-30T08:31:44;102169.72;;;3.09;91.71
84147;BME280;74267;50.434;7.398;2024-01-30T08:34:11;102173.28;;;3.08;92.44
84147;BME280;74267;50.434;7.398;2024-01-30T08:36:36;102179.66;;;3.15;92.34
84147;BME280;74267;50.434;7.398;2024-01-30T08:39:02;102178.03;;;3.14;91.74
84147;BME280;74267;50.434;7.398;2024-01-30T08:41:28;102178.59;;;3.17;91.78
84147;BME280;74267;50.434;7.398;2024-01-30T08:43:53;102168.06;;;3.19;91.99
84147;BME280;74267;50.434;7.398;2024-01-30T08:46:19;102162.28;;;3.26;91.69
84147;BME280;74267;50.434;7.398;2024-01-30T08:48:46;102154.72;;;3.23;92.39
84147;BME280;74267;50.434;7.398;2024-01-30T08:51:11;102162.84;;;3.30;92.30
84147;BME280;74267;50.434;7.398;2024-01-30T08:53:37;102151.03;;;3.26;91.64
84147;BME280;74267;50.434;7.398;2024-01-30T08:56:03;102144.28;;;3.34;92.06
84147;BME280;74267;50.434;7.398;2024-01-30T08:58:29;102144.53;;;3.31;92.02
84147;BME280;74267;50.434;7.398;2024-01-30T09:00:54;102156.00;;;3.29;91.37
84147;BME280;74267;50.434;7.398;2024-01-30T09:03:19;102156.94;;;3.39;91.66
84147;BME280;74267;50.434;7.398;2024-01-30T09:05:45;102147.94;;;3.43;91.97
84147;BME280;74267;50.434;7.398;2024-01-30T09:08:10;102142.72;;;3.43;92.11
84147;BME280;74267;50.434;7.398;2024-01-30T09:10:35;102135.41;;;3.48;91.71
84147;BME280;74267;50.434;7.398;2024-01-30T09:13:01;102152.44;;;3.52;92.31
84147;BME280;74267;50.434;7.398;2024-01-30T09:15:26;102150.41;;;3.55;91.37
84147;BME280;74267;50.434;7.398;2024-01-30T09:17:51;102164.00;;;3.59;91.91
84147;BME280;74267;50.434;7.398;2024-01-30T09:20:17;102145.34;;;3.54;91.40
84147;BME280;74267;50.434;7.398;2024-01-30T09:22:42;102151.94;;;3.58;92.22
84147;BME280;74267;50.434;7.398;2024-01-30T09:25:07;102164.00;;;3.59;92.53
84147;BME280;74267;50.434;7.398;2024-01-30T09:27:33;102161.75;;;3.65;92.18
84147;BME280;74267;50.434;7.398;2024-01-30T09:29:58;102161.38;;;3.70;92.07
84147;BME280;74267;50.434;7.398;2024-01-30T09:32:23;102166.09;;;3.76;91.58
84147;BME280;74267;50.434;7.398;2024-01-30T09:34:48;102177.00;;;3.81;90.87
84147;BME280;74267;50.434;7.398;2024-01-30T09:37:14;102184.56;;;3.84;91.41
84147;BME280;74267;50.434;7.398;2024-01-30T09:39:40;102165.84;;;3.79;91.71
84147;BME280;74267;50.434;7.398;2024-01-30T09:42:20;102170.34;;;3.88;91.46
84147;BME280;74267;50.434;7.398;2024-01-30T09:44:50;102161.69;;;3.87;92.35
84147;BME280;74267;50.434;7.398;2024-01-30T09:47:17;102166.53;;;3.92;92.34
84147;BME280;74267;50.434;7.398;2024-01-30T09:49:43;102175.97;;;4.04;92.08
84147;BME280;74267;50.434;7.398;2024-01-30T09:52:08;102169.75;;;4.16;92.13
84147;BME280;74267;50.434;7.398;2024-01-30T09:54:34;102168.41;;;4.21;91.12
84147;BME280;74267;50.434;7.398;2024-01-30T09:57:01;102178.19;;;4.40;90.21
84147;BME280;74267;50.434;7.398;2024-01-30T09:59:26;102173.53;;;4.43;90.56
84147;BME280;74267;50.434;7.398;2024-01-30T10:01:51;102168.66;;;4.50;90.60
84147;BME280;74267;50.434;7.398;2024-01-30T10:04:17;102169.69;;;4.58;91.40
84147;BME280;74267;50.434;7.398;2024-01-30T10:06:42;102163.53;;;4.69;91.22
84147;BME280;74267;50.434;7.398;2024-01-30T10:09:08;102176.00;;;4.86;91.68
84147;BME280;74267;50.434;7.398;2024-01-30T10:11:36;102167.84;;;5.00;90.88
84147;BME280;74267;50.434;7.398;2024-01-30T10:14:02;102173.94;;;5.10;90.58
84147;BME280;74267;50.434;7.398;2024-01-30T10:16:28;102170.13;;;5.24;90.45
84147;BME280;74267;50.434;7.398;2024-01-30T10:18:53;102175.41;;;5.33;89.62
84147;BME280;74267;50.434;7.398;2024-01-30T10:21:19;102177.59;;;5.38;89.75
84147;BME280;74267;50.434;7.398;2024-01-30T10:23:44;102173.22;;;5.38;89.32
84147;BME280;74267;50.434;7.398;2024-01-30T10:26:10;102177.91;;;5.44;89.43
84147;BME280;74267;50.434;7.398;2024-01-30T10:28:35;102185.09;;;5.52;89.67
84147;BME280;74267;50.434;7.398;2024-01-30T10:31:01;102182.34;;;5.53;88.28
84147;BME280;74267;50.434;7.398;2024-01-30T10:33:29;102185.38;;;5.58;88.23
84147;BME280;74267;50.434;7.398;2024-01-30T10:36:01;102179.63;;;5.64;89.38
84147;BME280;74267;50.434;7.398;2024-01-30T10:38:31;102177.16;;;5.72;88.25
84147;BME280;74267;50.434;7.398;2024-01-30T10:40:58;102185.34;;;5.88;89.29
84147;BME280;74267;50.434;7.398;2024-01-30T10:43:37;102184.53;;;5.97;89.10
84147;BME280;74267;50.434;7.398;2024-01-30T10:46:18;102179.16;;;6.08;88.69
84147;BME280;74267;50.434;7.398;2024-01-30T10:48:51;102187.44;;;6.13;87.88
84147;BME280;74267;50.434;7.398;2024-01-30T10:51:22;102173.50;;;6.22;87.92
84147;BME280;74267;50.434;7.398;2024-01-30T10:53:49;102181.09;;;6.25;88.16
84147;BME280;74267;50.434;7.398;2024-01-30T10:56:16;102179.03;;;6.38;88.05
84147;BME280;74267;50.434;7.398;2024-01-30T10:58:41;102182.44;;;6.48;87.59
84147;BME280;74267;50.434;7.398;2024-01-30T11:01:07;102173.06;;;6.55;87.06
84147;BME280;74267;50.434;7.398;2024-01-30T11:03:34;102176.22;;;6.68;87.01
84147;BME280;74267;50.434;7.398;2024-01-30T11:06:02;102177.88;;;6.79;86.67
84147;BME280;74267;50.434;7.398;2024-01-30T11:08:28;102175.50;;;6.85;86.49
84147;BME280;74267;50.434;7.398;2024-01-30T11:10:57;102176.16;;;6.97;86.11
84147;BME280;74267;50.434;7.398;2024-01-30T11:13:29;102178.34;;;7.01;85.72
84147;BME280;74267;50.434;7.398;2024-01-30T11:15:55;102175.16;;;7.07;84.83
84147;BME280;74267;50.434;7.398;2024-01-30T11:18:24;102178.16;;;7.12;85.09
84147;BME280;74267;50.434;7.398;2024-01-30T11:20:50;102170.13;;;7.23;85.40
84147;BME280;74267;50.434;7.398;2024-01-30T11:23:15;102149.97;;;7.33;84.68
84147;BME280;74267;50.434;7.398;2024-01-30T11:25:43;102150.97;;;7.50;84.12
84147;BME280;74267;50.434;7.398;2024-01-30T11:28:15;102148.97;;;7.62;83.67
84147;BME280;74267;50.434;7.398;2024-01-30T11:30:42;102155.56;;;7.66;83.30
84147;BME280;74267;50.434;7.398;2024-01-30T11:33:08;102142.31;;;7.67;83.89
84147;BME280;74267;50.434;7.398;2024-01-30T11:35:35;102134.28;;;7.69;83.43
84147;BME280;74267;50.434;7.398;2024-01-30T11:38:02;102144.47;;;7.72;83.15
84147;BME280;74267;50.434;7.398;2024-01-30T11:40:29;102132.06;;;7.74;82.90
84147;BME280;74267;50.434;7.398;2024-01-30T11:42:56;102135.75;;;7.81;82.57
84147;BME280;74267;50.434;7.398;2024-01-30T11:45:21;102131.16;;;7.83;82.78
84147;BME280;74267;50.434;7.398;2024-01-30T11:47:47;102118.44;;;7.88;83.14
84147;BME280;74267;50.434;7.398;2024-01-30T11:50:13;102114.69;;;7.90;82.32
84147;BME280;74267;50.434;7.398;2024-01-30T11:52:39;102114.03;;;7.88;83.16
84147;BME280;74267;50.434;7.398;2024-01-30T11:55:04;102112.88;;;7.91;83.23
84147;BME280;74267;50.434;7.398;2024-01-30T11:57:30;102116.16;;;7.93;82.91
84147;BME280;74267;50.434;7.398;2024-01-30T11:59:55;102110.91;;;7.93;83.51
84147;BME280;74267;50.434;7.398;2024-01-30T12:02:20;102118.03;;;8.00;83.93
84147;BME280;74267;50.434;7.398;2024-01-30T12:04:46;102106.13;;;8.06;83.77
84147;BME280;74267;50.434;7.398;2024-01-30T12:07:12;102105.81;;;8.09;83.55
84147;BME280;74267;50.434;7.398;2024-01-30T12:09:41;102095.72;;;8.14;82.76
84147;BME280;74267;50.434;7.398;2024-01-30T12:12:07;102101.31;;;8.19;83.41
84147;BME280;74267;50.434;7.398;2024-01-30T12:14:38;102095.78;;;8.22;82.96
84147;BME280;74267;50.434;7.398;2024-01-30T12:17:03;102080.44;;;8.27;83.12
84147;BME280;74267;50.434;7.398;2024-01-30T12:19:28;102096.84;;;8.29;83.41
84147;BME280;74267;50.434;7.398;2024-01-30T12:21:57;102099.44;;;8.29;83.25
84147;BME280;74267;50.434;7.398;2024-01-30T12:24:27;102110.38;;;8.42;83.39
84147;BME280;74267;50.434;7.398;2024-01-30T12:26:59;102105.19;;;8.50;82.12
84147;BME280;74267;50.434;7.398;2024-01-30T12:29:24;102104.38;;;8.49;82.46
84147;BME280;74267;50.434;7.398;2024-01-30T12:31:53;102102.56;;;8.50;82.83
84147;BME280;74267;50.434;7.398;2024-01-30T12:34:18;102115.38;;;8.53;82.34
84147;BME280;74267;50.434;7.398;2024-01-30T12:36:47;102117.53;;;8.57;82.20
84147;BME280;74267;50.434;7.398;2024-01-30T12:39:12;102097.53;;;8.56;82.22
84147;BME280;74267;50.434;7.398;2024-01-30T12:41:39;102107.88;;;8.58;82.02
84147;BME280;74267;50.434;7.398;2024-01-30T12:44:05;102096.69;;;8.56;82.29
84147;BME280;74267;50.434;7.398;2024-01-30T12:46:31;102104.25;;;8.59;82.36
84147;BME280;74267;50.434;7.398;2024-01-30T12:48:56;102096.91;;;8.62;81.61
84147;BME280;74267;50.434;7.398;2024-01-30T12:51:21;102102.16;;;8.62;81.92
84147;BME280;74267;50.434;7.398;2024-01-30T12:53:46;102096.38;;;8.59;81.86